Friday, October 19, 2018, 2:52 AM EDT
Back to Local

KFME, Fort Meade / Tipton

Location: Laurel, MD, United States Lat: 39.083
Local Time: 2:52 AM EDT ( 6:52 GMT) Lon: -76.767
Time Zone: US/Eastern Elev: 150 ft

Show me the last for .
Show Decoded

2018-10-19 02:21 METAR KFME 190621Z AUTO 00000KT 10SM CLR 01/01 A3041 RMK AO1 =
2018-10-19 02:03 METAR KFME 190603Z AUTO 00000KT 10SM CLR 01/01 A3040 RMK AO1 =
2018-10-19 01:42 METAR KFME 190542Z AUTO 00000KT 10SM CLR 02/01 A3041 RMK AO1 =
2018-10-19 01:21 METAR KFME 190521Z AUTO 00000KT 10SM CLR 02/02 A3040 RMK AO1 =
2018-10-19 01:03 METAR KFME 190503Z AUTO 00000KT 10SM CLR 02/02 A3041 RMK AO1 =
2018-10-19 00:42 METAR KFME 190442Z AUTO 00000KT 10SM CLR 02/02 A3041 RMK AO1 =
2018-10-19 00:21 METAR KFME 190421Z AUTO 00000KT 10SM CLR 02/01 A3041 RMK AO1 =
2018-10-19 00:03 METAR KFME 190403Z AUTO 00000KT 10SM CLR 02/02 A3042 RMK AO1 =
2018-10-18 23:42 METAR KFME 190342Z AUTO 00000KT 10SM CLR 02/02 A3042 RMK AO1 =
2018-10-18 23:21 METAR KFME 190321Z AUTO 00000KT 10SM CLR 02/02 A3042 RMK AO1 =
2018-10-18 23:03 METAR KFME 190303Z AUTO 00000KT 10SM CLR 03/02 A3042 RMK AO1 =
2018-10-18 22:42 METAR KFME 190242Z AUTO 00000KT 10SM CLR 03/02 A3042 RMK AO1 =
2018-10-18 22:21 METAR KFME 190221Z AUTO 00000KT 10SM CLR 03/02 A3042 RMK AO1 =
2018-10-18 22:03 METAR KFME 190203Z AUTO 00000KT 10SM CLR 03/02 A3042 RMK AO1 =
2018-10-18 21:42 METAR KFME 190142Z AUTO 00000KT 10SM CLR 03/03 A3042 RMK AO1 =
2018-10-18 21:21 METAR KFME 190121Z AUTO 00000KT 10SM CLR 03/03 A3042 RMK AO1 =
2018-10-18 21:03 METAR KFME 190103Z AUTO 00000KT 10SM CLR 04/03 A3042 RMK AO1 =
2018-10-18 20:42 METAR KFME 190042Z AUTO 00000KT 10SM CLR 04/03 A3042 RMK AO1 =
2018-10-18 20:21 METAR KFME 190021Z AUTO 00000KT 10SM CLR 05/03 A3042 RMK AO1 =
2018-10-18 20:03 METAR KFME 190003Z AUTO 00000KT 10SM CLR 05/03 A3042 RMK AO1 =
2018-10-18 19:42 METAR KFME 182342Z AUTO 00000KT 10SM CLR 05/03 A3042 RMK AO1 =
2018-10-18 19:21 METAR KFME 182321Z AUTO 00000KT 10SM CLR 06/03 A3042 RMK AO1 =
2018-10-18 19:03 METAR KFME 182303Z AUTO 00000KT 10SM CLR 06/03 A3042 RMK AO1 =
2018-10-18 18:42 METAR KFME 182242Z AUTO 00000KT 10SM CLR 07/03 A3042 RMK AO1 =
2018-10-18 18:21 METAR KFME 182221Z AUTO 00000KT 10SM CLR 08/03 A3041 RMK AO1 =
2018-10-18 18:03 METAR KFME 182203Z AUTO 30003KT 10SM CLR 09/03 A3041 RMK AO1 =
2018-10-18 17:42 METAR KFME 182142Z AUTO 00000KT 10SM CLR 10/02 A3040 RMK AO1 =
2018-10-18 17:21 METAR KFME 182121Z AUTO 30006KT 10SM CLR 11/01 A3040 RMK AO1 =
2018-10-18 17:03 METAR KFME 182103Z AUTO 31005KT 10SM CLR 11/01 A3040 RMK AO1 =
2018-10-18 16:42 METAR KFME 182042Z AUTO 26006KT 10SM CLR 11/01 A3040 RMK AO1 =
2018-10-18 16:21 METAR KFME 182021Z AUTO 29008KT 10SM CLR 12/01 A3040 RMK AO1 =
2018-10-18 16:03 METAR KFME 182003Z AUTO 29009G14KT 10SM CLR 12/01 A3040 RMK AO1 =
2018-10-18 15:42 METAR KFME 181942Z AUTO 29008KT 10SM CLR 12/01 A3040 RMK AO1 =
2018-10-18 15:21 METAR KFME 181921Z AUTO 30007KT 10SM CLR 12/00 A3040 RMK AO1 =
2018-10-18 15:03 METAR KFME 181903Z AUTO 30003KT 10SM CLR 13/01 A3041 RMK AO1 =
2018-10-18 14:42 METAR KFME 181842Z AUTO 28010G18KT 10SM CLR 13/00 A3041 RMK AO1 =
2018-10-18 14:21 METAR KFME 181821Z AUTO 35006KT 10SM CLR 13/01 A3042 RMK AO1 =
2018-10-18 14:03 METAR KFME 181803Z AUTO 32010G14KT 270V350 10SM CLR 12/00 A3042 RMK AO1 =
2018-10-18 13:42 METAR KFME 181742Z AUTO 30008G14KT 10SM CLR 12/01 A3043 RMK AO1 =
2018-10-18 13:21 METAR KFME 181721Z AUTO 32008KT 290V010 10SM CLR 12/00 A3043 RMK AO1 =
2018-10-18 13:03 METAR KFME 181703Z AUTO 27009KT 10SM CLR 12/00 A3044 RMK AO1 =
2018-10-18 12:42 METAR KFME 181642Z AUTO 30007G16KT 270V330 10SM CLR 12/00 A3045 RMK AO1 =
2018-10-18 12:21 METAR KFME 181621Z AUTO 30008KT 260V010 10SM CLR 12/00 A3045 RMK AO1 =
2018-10-18 12:03 METAR KFME 181603Z AUTO 31008G14KT 10SM CLR 11/00 A3045 RMK AO1 =
2018-10-18 11:42 METAR KFME 181542Z AUTO 28007KT 10SM CLR 11/00 A3045 RMK AO1 =
2018-10-18 11:21 METAR KFME 181521Z AUTO 31004G15KT 10SM CLR 11/00 A3046 RMK AO1 =
2018-10-18 11:03 METAR KFME 181503Z AUTO 30006G16KT 10SM CLR 11/00 A3046 RMK AO1 =
2018-10-18 10:42 METAR KFME 181442Z AUTO 31009KT 280V340 10SM SCT055 10/00 A3046 RMK AO1 =
2018-10-18 10:21 METAR KFME 181421Z AUTO 31007G15KT 270V350 10SM CLR 10/00 A3046 RMK AO1 =
2018-10-18 10:03 METAR KFME 181403Z AUTO 29007KT 10SM CLR 10/00 A3046 RMK AO1 =
2018-10-18 09:42 METAR KFME 181342Z AUTO 31008KT 270V340 10SM CLR 08/00 A3045 RMK AO1 =
2018-10-18 09:21 METAR KFME 181321Z AUTO 28004KT 10SM CLR 08/00 A3045 RMK AO1 =
2018-10-18 09:03 METAR KFME 181303Z AUTO 29008KT 10SM CLR 07/00 A3045 RMK AO1 =
2018-10-18 08:42 METAR KFME 181242Z AUTO 28005KT 10SM CLR 06/02 A3044 RMK AO1 =
2018-10-18 08:21 METAR KFME 181221Z AUTO 29004KT 10SM CLR 04/01 A3043 RMK AO1 =
2018-10-18 08:03 METAR KFME 181203Z AUTO 00000KT 10SM CLR 04/01 A3042 RMK AO1 =
2018-10-18 07:42 METAR KFME 181142Z AUTO 28004KT 10SM CLR 03/01 A3042 RMK AO1 =
2018-10-18 07:21 METAR KFME 181121Z AUTO 00000KT 10SM CLR 03/01 A3041 RMK AO1 =
2018-10-18 07:03 METAR KFME 181103Z AUTO 00000KT 10SM CLR 03/01 A3040 RMK AO1 =
2018-10-18 06:21 METAR KFME 181021Z AUTO 00000KT 10SM CLR 05/01 A3039 RMK AO1 =
2018-10-18 06:03 METAR KFME 181003Z AUTO 31004KT 10SM CLR 05/01 A3038 RMK AO1 =
2018-10-18 05:42 METAR KFME 180942Z AUTO 33003KT 10SM CLR 05/01 A3038 RMK AO1 =
2018-10-18 05:00 METAR KFME 180900Z AUTO 00000KT 10SM SCT070 07/00 A3036 RMK AO1 =
2018-10-18 04:42 METAR KFME 180842Z AUTO 33006KT 10SM CLR 08/00 A3035 RMK AO1 =
2018-10-18 04:21 METAR KFME 180821Z AUTO 31005KT 10SM SCT075 08/00 A3034 RMK AO1 =
2018-10-18 04:03 METAR KFME 180803Z AUTO 32007KT 10SM BKN075 08/00 A3034 RMK AO1 =
2018-10-18 03:42 METAR KFME 180742Z AUTO 32007KT 290V350 10SM OVC075 08/00 A3033 RMK AO1 =
2018-10-18 03:21 METAR KFME 180721Z AUTO 30006KT 10SM OVC075 09/00 A3034 RMK AO1 =
2018-10-18 03:03 METAR KFME 180703Z AUTO 32008KT 10SM OVC075 09/01 A3033 RMK AO1 =

Support USWX by starting your Amazon purchase here.